sensor_id;sensor_type;location;lat;lon;timestamp;temperature;humidity
14031;DHT22;7090;49.436;8.490;2022-07-23T00:01:18;23.40;99.90
14031;DHT22;7090;49.436;8.490;2022-07-23T00:03:44;23.50;99.90
14031;DHT22;7090;49.436;8.490;2022-07-23T00:06:10;23.50;99.90
14031;DHT22;7090;49.436;8.490;2022-07-23T00:08:36;23.50;99.90
14031;DHT22;7090;49.436;8.490;2022-07-23T00:11:02;23.40;99.90
14031;DHT22;7090;49.436;8.490;2022-07-23T00:13:27;23.40;99.90
14031;DHT22;7090;49.436;8.490;2022-07-23T00:15:53;23.40;99.90
14031;DHT22;7090;49.436;8.490;2022-07-23T00:18:19;23.50;99.90
14031;DHT22;7090;49.436;8.490;2022-07-23T00:20:44;23.50;94.90
14031;DHT22;7090;49.436;8.490;2022-07-23T00:23:10;23.50;99.40
14031;DHT22;7090;49.436;8.490;2022-07-23T00:25:36;23.50;46.80
14031;DHT22;7090;49.436;8.490;2022-07-23T00:28:02;23.50;23.50
14031;DHT22;7090;49.436;8.490;2022-07-23T00:30:28;23.50;7.40
14031;DHT22;7090;49.436;8.490;2022-07-23T00:32:59;23.50;1.00
14031;DHT22;7090;49.436;8.490;2022-07-23T00:35:27;23.40;1.00
14031;DHT22;7090;49.436;8.490;2022-07-23T00:37:54;23.40;1.00
14031;DHT22;7090;49.436;8.490;2022-07-23T00:40:20;23.30;1.00
14031;DHT22;7090;49.436;8.490;2022-07-23T00:42:45;23.30;1.00
14031;DHT22;7090;49.436;8.490;2022-07-23T00:45:11;23.30;1.00
14031;DHT22;7090;49.436;8.490;2022-07-23T00:47:37;23.30;1.00
14031;DHT22;7090;49.436;8.490;2022-07-23T00:50:05;23.30;1.00
14031;DHT22;7090;49.436;8.490;2022-07-23T00:52:32;23.30;1.00
14031;DHT22;7090;49.436;8.490;2022-07-23T00:54:57;23.30;1.00
14031;DHT22;7090;49.436;8.490;2022-07-23T00:57:23;23.30;1.00
14031;DHT22;7090;49.436;8.490;2022-07-23T00:59:49;23.30;1.00
14031;DHT22;7090;49.436;8.490;2022-07-23T01:02:14;23.30;1.00
14031;DHT22;7090;49.436;8.490;2022-07-23T01:04:40;23.30;1.00
14031;DHT22;7090;49.436;8.490;2022-07-23T01:07:07;23.30;1.00
14031;DHT22;7090;49.436;8.490;2022-07-23T01:09:32;23.30;1.00
14031;DHT22;7090;49.436;8.490;2022-07-23T01:11:59;23.30;1.00
14031;DHT22;7090;49.436;8.490;2022-07-23T01:14:25;23.30;1.00
14031;DHT22;7090;49.436;8.490;2022-07-23T01:16:51;23.30;1.00
14031;DHT22;7090;49.436;8.490;2022-07-23T01:19:17;23.20;1.00
14031;DHT22;7090;49.436;8.490;2022-07-23T01:21:46;23.10;1.00
14031;DHT22;7090;49.436;8.490;2022-07-23T01:24:12;23.10;1.00
14031;DHT22;7090;49.436;8.490;2022-07-23T01:26:41;23.10;1.00
14031;DHT22;7090;49.436;8.490;2022-07-23T01:29:07;23.00;1.00
14031;DHT22;7090;49.436;8.490;2022-07-23T01:31:32;23.00;1.00
14031;DHT22;7090;49.436;8.490;2022-07-23T01:33:58;22.90;7.80
14031;DHT22;7090;49.436;8.490;2022-07-23T01:36:24;22.80;18.40
14031;DHT22;7090;49.436;8.490;2022-07-23T01:38:50;22.70;85.40
14031;DHT22;7090;49.436;8.490;2022-07-23T01:41:16;22.60;84.60
14031;DHT22;7090;49.436;8.490;2022-07-23T01:43:42;22.60;99.90
14031;DHT22;7090;49.436;8.490;2022-07-23T01:46:07;22.60;99.90
14031;DHT22;7090;49.436;8.490;2022-07-23T01:48:33;22.60;99.90
14031;DHT22;7090;49.436;8.490;2022-07-23T01:50:59;22.50;99.90
14031;DHT22;7090;49.436;8.490;2022-07-23T01:53:24;22.50;99.90
14031;DHT22;7090;49.436;8.490;2022-07-23T01:55:50;22.50;99.90
14031;DHT22;7090;49.436;8.490;2022-07-23T01:58:16;22.50;99.90
14031;DHT22;7090;49.436;8.490;2022-07-23T02:00:41;22.50;99.90
14031;DHT22;7090;49.436;8.490;2022-07-23T02:03:07;22.50;99.90
14031;DHT22;7090;49.436;8.490;2022-07-23T02:05:33;22.50;99.90
14031;DHT22;7090;49.436;8.490;2022-07-23T02:07:59;22.50;99.90
14031;DHT22;7090;49.436;8.490;2022-07-23T02:10:25;22.50;99.90
14031;DHT22;7090;49.436;8.490;2022-07-23T02:12:51;22.50;99.90
14031;DHT22;7090;49.436;8.490;2022-07-23T02:15:16;22.40;99.90
14031;DHT22;7090;49.436;8.490;2022-07-23T02:17:42;22.50;99.90
14031;DHT22;7090;49.436;8.490;2022-07-23T02:20:10;22.50;99.80
14031;DHT22;7090;49.436;8.490;2022-07-23T02:22:36;22.40;99.90
14031;DHT22;7090;49.436;8.490;2022-07-23T02:25:03;22.40;99.90
14031;DHT22;7090;49.436;8.490;2022-07-23T02:27:29;22.40;99.90
14031;DHT22;7090;49.436;8.490;2022-07-23T02:29:54;22.40;99.90
14031;DHT22;7090;49.436;8.490;2022-07-23T02:32:20;22.40;99.90
14031;DHT22;7090;49.436;8.490;2022-07-23T02:34:48;22.50;99.90
14031;DHT22;7090;49.436;8.490;2022-07-23T02:37:14;22.50;99.90
14031;DHT22;7090;49.436;8.490;2022-07-23T02:39:40;22.50;99.90
14031;DHT22;7090;49.436;8.490;2022-07-23T02:42:06;22.50;94.30
14031;DHT22;7090;49.436;8.490;2022-07-23T02:44:32;22.50;93.80
14031;DHT22;7090;49.436;8.490;2022-07-23T02:46:57;22.50;95.10
14031;DHT22;7090;49.436;8.490;2022-07-23T02:49:23;22.40;95.50
14031;DHT22;7090;49.436;8.490;2022-07-23T02:51:49;22.40;99.90
14031;DHT22;7090;49.436;8.490;2022-07-23T02:54:14;22.40;99.90
14031;DHT22;7090;49.436;8.490;2022-07-23T02:56:40;22.40;99.90
14031;DHT22;7090;49.436;8.490;2022-07-23T02:59:06;22.40;99.90
14031;DHT22;7090;49.436;8.490;2022-07-23T03:01:31;22.30;99.90
14031;DHT22;7090;49.436;8.490;2022-07-23T03:03:57;22.30;99.90
14031;DHT22;7090;49.436;8.490;2022-07-23T03:06:23;22.20;99.90
14031;DHT22;7090;49.436;8.490;2022-07-23T03:08:48;22.20;99.90
14031;DHT22;7090;49.436;8.490;2022-07-23T03:11:14;22.10;99.90
14031;DHT22;7090;49.436;8.490;2022-07-23T03:13:40;21.90;99.90
14031;DHT22;7090;49.436;8.490;2022-07-23T03:16:07;21.90;99.90
14031;DHT22;7090;49.436;8.490;2022-07-23T03:18:33;21.90;99.90
14031;DHT22;7090;49.436;8.490;2022-07-23T03:20:59;21.90;99.90
14031;DHT22;7090;49.436;8.490;2022-07-23T03:23:24;21.90;99.90
14031;DHT22;7090;49.436;8.490;2022-07-23T03:25:50;21.90;99.90
14031;DHT22;7090;49.436;8.490;2022-07-23T03:28:16;21.90;99.90
14031;DHT22;7090;49.436;8.490;2022-07-23T03:30:46;21.90;99.90
14031;DHT22;7090;49.436;8.490;2022-07-23T03:33:19;22.00;99.90
14031;DHT22;7090;49.436;8.490;2022-07-23T03:35:46;22.00;99.90
14031;DHT22;7090;49.436;8.490;2022-07-23T03:38:13;21.90;99.90
14031;DHT22;7090;49.436;8.490;2022-07-23T03:40:39;21.90;99.90
14031;DHT22;7090;49.436;8.490;2022-07-23T03:43:04;21.80;1.00
14031;DHT22;7090;49.436;8.490;2022-07-23T03:45:31;21.80;1.00
14031;DHT22;7090;49.436;8.490;2022-07-23T03:47:57;21.70;1.00
14031;DHT22;7090;49.436;8.490;2022-07-23T03:50:23;21.70;1.00
14031;DHT22;7090;49.436;8.490;2022-07-23T03:52:48;21.60;1.00
14031;DHT22;7090;49.436;8.490;2022-07-23T03:55:14;21.60;1.00
14031;DHT22;7090;49.436;8.490;2022-07-23T03:57:40;21.70;1.00
14031;DHT22;7090;49.436;8.490;2022-07-23T04:00:07;21.70;1.00
14031;DHT22;7090;49.436;8.490;2022-07-23T04:02:35;21.70;1.00
14031;DHT22;7090;49.436;8.490;2022-07-23T04:05:01;21.70;1.00
14031;DHT22;7090;49.436;8.490;2022-07-23T04:07:26;21.60;1.00
14031;DHT22;7090;49.436;8.490;2022-07-23T04:09:52;21.60;1.00
14031;DHT22;7090;49.436;8.490;2022-07-23T04:12:18;21.40;1.00
14031;DHT22;7090;49.436;8.490;2022-07-23T04:14:44;21.30;1.00
14031;DHT22;7090;49.436;8.490;2022-07-23T04:17:10;21.20;15.00
14031;DHT22;7090;49.436;8.490;2022-07-23T04:19:36;21.10;11.90
14031;DHT22;7090;49.436;8.490;2022-07-23T04:22:05;21.00;99.90
14031;DHT22;7090;49.436;8.490;2022-07-23T04:24:31;20.80;99.90
14031;DHT22;7090;49.436;8.490;2022-07-23T04:26:57;20.70;99.90
14031;DHT22;7090;49.436;8.490;2022-07-23T04:29:23;20.60;99.90
14031;DHT22;7090;49.436;8.490;2022-07-23T04:31:49;20.40;99.90
14031;DHT22;7090;49.436;8.490;2022-07-23T04:34:15;20.50;99.90
14031;DHT22;7090;49.436;8.490;2022-07-23T04:36:40;20.50;99.90
14031;DHT22;7090;49.436;8.490;2022-07-23T04:39:06;20.50;99.90
14031;DHT22;7090;49.436;8.490;2022-07-23T04:41:32;20.50;99.90
14031;DHT22;7090;49.436;8.490;2022-07-23T04:43:58;20.50;99.90
14031;DHT22;7090;49.436;8.490;2022-07-23T04:46:23;20.50;99.90
14031;DHT22;7090;49.436;8.490;2022-07-23T04:48:49;20.40;99.90
14031;DHT22;7090;49.436;8.490;2022-07-23T04:51:14;20.30;99.90
14031;DHT22;7090;49.436;8.490;2022-07-23T04:53:40;20.20;99.90
14031;DHT22;7090;49.436;8.490;2022-07-23T04:56:06;20.20;99.90
14031;DHT22;7090;49.436;8.490;2022-07-23T04:58:32;20.10;99.90
14031;DHT22;7090;49.436;8.490;2022-07-23T05:00:58;20.10;99.90
14031;DHT22;7090;49.436;8.490;2022-07-23T05:03:23;20.10;99.90
14031;DHT22;7090;49.436;8.490;2022-07-23T05:05:49;20.00;99.90
14031;DHT22;7090;49.436;8.490;2022-07-23T05:08:15;19.90;99.90
14031;DHT22;7090;49.436;8.490;2022-07-23T05:10:40;19.80;99.90
14031;DHT22;7090;49.436;8.490;2022-07-23T05:13:06;19.80;99.90
14031;DHT22;7090;49.436;8.490;2022-07-23T05:15:31;19.70;99.90
14031;DHT22;7090;49.436;8.490;2022-07-23T05:17:57;19.60;99.90
14031;DHT22;7090;49.436;8.490;2022-07-23T05:20:23;19.50;99.90
14031;DHT22;7090;49.436;8.490;2022-07-23T05:22:48;19.50;99.90
14031;DHT22;7090;49.436;8.490;2022-07-23T05:25:14;19.30;99.90
14031;DHT22;7090;49.436;8.490;2022-07-23T05:27:40;19.20;99.90
14031;DHT22;7090;49.436;8.490;2022-07-23T05:30:06;19.30;99.90
14031;DHT22;7090;49.436;8.490;2022-07-23T05:32:32;19.20;99.90
14031;DHT22;7090;49.436;8.490;2022-07-23T05:34:58;19.10;99.90
14031;DHT22;7090;49.436;8.490;2022-07-23T05:37:23;19.10;99.90
14031;DHT22;7090;49.436;8.490;2022-07-23T05:39:49;19.10;99.90
14031;DHT22;7090;49.436;8.490;2022-07-23T05:42:15;19.10;99.90
14031;DHT22;7090;49.436;8.490;2022-07-23T05:44:40;19.10;99.90
14031;DHT22;7090;49.436;8.490;2022-07-23T05:47:06;19.10;99.90
14031;DHT22;7090;49.436;8.490;2022-07-23T05:49:32;19.20;99.90
14031;DHT22;7090;49.436;8.490;2022-07-23T05:51:57;19.20;99.90
14031;DHT22;7090;49.436;8.490;2022-07-23T05:54:23;19.30;99.90
14031;DHT22;7090;49.436;8.490;2022-07-23T05:56:48;19.40;99.90
14031;DHT22;7090;49.436;8.490;2022-07-23T05:59:15;19.50;99.90
14031;DHT22;7090;49.436;8.490;2022-07-23T06:01:41;19.50;99.90
14031;DHT22;7090;49.436;8.490;2022-07-23T06:04:07;19.50;99.90
14031;DHT22;7090;49.436;8.490;2022-07-23T06:06:33;19.70;99.90
14031;DHT22;7090;49.436;8.490;2022-07-23T06:08:58;20.10;99.90
14031;DHT22;7090;49.436;8.490;2022-07-23T06:11:24;20.70;99.90
14031;DHT22;7090;49.436;8.490;2022-07-23T06:13:50;20.90;99.90
14031;DHT22;7090;49.436;8.490;2022-07-23T06:16:15;21.00;99.90
14031;DHT22;7090;49.436;8.490;2022-07-23T06:18:41;21.00;99.90
14031;DHT22;7090;49.436;8.490;2022-07-23T06:21:06;21.00;99.90
14031;DHT22;7090;49.436;8.490;2022-07-23T06:23:32;20.90;99.90
14031;DHT22;7090;49.436;8.490;2022-07-23T06:25:58;20.90;99.90
14031;DHT22;7090;49.436;8.490;2022-07-23T06:28:23;20.80;99.90
14031;DHT22;7090;49.436;8.490;2022-07-23T06:30:49;21.00;99.90
14031;DHT22;7090;49.436;8.490;2022-07-23T06:33:14;21.20;99.90
14031;DHT22;7090;49.436;8.490;2022-07-23T06:35:40;21.20;99.90
14031;DHT22;7090;49.436;8.490;2022-07-23T06:38:06;21.30;99.90
14031;DHT22;7090;49.436;8.490;2022-07-23T06:40:32;21.40;99.90
14031;DHT22;7090;49.436;8.490;2022-07-23T06:42:57;21.40;99.90
14031;DHT22;7090;49.436;8.490;2022-07-23T06:45:23;21.40;99.90
14031;DHT22;7090;49.436;8.490;2022-07-23T06:47:48;21.40;99.90
14031;DHT22;7090;49.436;8.490;2022-07-23T06:50:14;21.40;99.90
14031;DHT22;7090;49.436;8.490;2022-07-23T06:52:40;21.40;99.90
14031;DHT22;7090;49.436;8.490;2022-07-23T06:55:05;21.40;99.90
14031;DHT22;7090;49.436;8.490;2022-07-23T06:57:31;21.40;99.90
14031;DHT22;7090;49.436;8.490;2022-07-23T06:59:57;21.40;99.90
14031;DHT22;7090;49.436;8.490;2022-07-23T07:02:22;21.40;99.90
14031;DHT22;7090;49.436;8.490;2022-07-23T07:04:49;21.30;99.90
14031;DHT22;7090;49.436;8.490;2022-07-23T07:07:14;21.20;99.90
14031;DHT22;7090;49.436;8.490;2022-07-23T07:09:40;21.10;99.90
14031;DHT22;7090;49.436;8.490;2022-07-23T07:12:06;20.80;99.90
14031;DHT22;7090;49.436;8.490;2022-07-23T07:14:31;20.70;99.90
14031;DHT22;7090;49.436;8.490;2022-07-23T07:16:57;20.80;99.90
14031;DHT22;7090;49.436;8.490;2022-07-23T07:19:22;21.00;99.90
14031;DHT22;7090;49.436;8.490;2022-07-23T07:21:48;21.20;99.90
14031;DHT22;7090;49.436;8.490;2022-07-23T07:24:14;21.40;99.90
14031;DHT22;7090;49.436;8.490;2022-07-23T07:26:39;21.60;99.90
14031;DHT22;7090;49.436;8.490;2022-07-23T07:29:05;21.80;99.90
14031;DHT22;7090;49.436;8.490;2022-07-23T07:31:31;22.00;99.90
14031;DHT22;7090;49.436;8.490;2022-07-23T07:33:58;22.30;99.90
14031;DHT22;7090;49.436;8.490;2022-07-23T07:36:23;22.90;99.90
14031;DHT22;7090;49.436;8.490;2022-07-23T07:38:49;23.70;99.90
14031;DHT22;7090;49.436;8.490;2022-07-23T07:41:15;24.30;1.00
14031;DHT22;7090;49.436;8.490;2022-07-23T07:43:41;24.50;1.00
14031;DHT22;7090;49.436;8.490;2022-07-23T07:46:07;25.10;1.00
14031;DHT22;7090;49.436;8.490;2022-07-23T07:48:37;25.20;1.00
14031;DHT22;7090;49.436;8.490;2022-07-23T07:51:04;24.50;1.00
14031;DHT22;7090;49.436;8.490;2022-07-23T07:53:30;24.50;1.00
14031;DHT22;7090;49.436;8.490;2022-07-23T07:55:55;23.80;1.00
14031;DHT22;7090;49.436;8.490;2022-07-23T07:58:21;24.30;1.00
14031;DHT22;7090;49.436;8.490;2022-07-23T08:00:47;24.80;1.00
14031;DHT22;7090;49.436;8.490;2022-07-23T08:03:13;25.00;1.00
14031;DHT22;7090;49.436;8.490;2022-07-23T08:05:38;25.20;1.00
14031;DHT22;7090;49.436;8.490;2022-07-23T08:08:04;25.20;1.00
14031;DHT22;7090;49.436;8.490;2022-07-23T08:10:30;25.40;1.00
14031;DHT22;7090;49.436;8.490;2022-07-23T08:12:57;25.50;1.00
14031;DHT22;7090;49.436;8.490;2022-07-23T08:15:24;25.70;1.00
14031;DHT22;7090;49.436;8.490;2022-07-23T08:17:50;25.70;99.90
14031;DHT22;7090;49.436;8.490;2022-07-23T08:20:18;25.20;99.90
14031;DHT22;7090;49.436;8.490;2022-07-23T08:25:16;25.80;99.90
14031;DHT22;7090;49.436;8.490;2022-07-23T08:27:44;25.80;99.90
14031;DHT22;7090;49.436;8.490;2022-07-23T08:30:10;26.00;20.40
14031;DHT22;7090;49.436;8.490;2022-07-23T08:32:56;26.30;1.00
14031;DHT22;7090;49.436;8.490;2022-07-23T08:35:24;26.70;1.00
14031;DHT22;7090;49.436;8.490;2022-07-23T08:37:50;26.70;1.00
14031;DHT22;7090;49.436;8.490;2022-07-23T08:40:16;25.90;1.00
14031;DHT22;7090;49.436;8.490;2022-07-23T08:42:41;26.80;1.00
14031;DHT22;7090;49.436;8.490;2022-07-23T08:45:08;27.90;1.00
14031;DHT22;7090;49.436;8.490;2022-07-23T08:47:37;28.50;1.00
14031;DHT22;7090;49.436;8.490;2022-07-23T08:50:03;28.50;1.00
14031;DHT22;7090;49.436;8.490;2022-07-23T08:52:30;27.80;99.90
14031;DHT22;7090;49.436;8.490;2022-07-23T08:54:56;27.70;99.90
14031;DHT22;7090;49.436;8.490;2022-07-23T08:57:22;28.30;99.90
14031;DHT22;7090;49.436;8.490;2022-07-23T08:59:48;28.60;99.90
14031;DHT22;7090;49.436;8.490;2022-07-23T09:02:13;28.40;1.00
14031;DHT22;7090;49.436;8.490;2022-07-23T09:04:39;27.90;99.90
14031;DHT22;7090;49.436;8.490;2022-07-23T09:07:05;28.50;64.90
14031;DHT22;7090;49.436;8.490;2022-07-23T09:09:31;28.70;57.50
14031;DHT22;7090;49.436;8.490;2022-07-23T09:12:07;29.20;1.00
14031;DHT22;7090;49.436;8.490;2022-07-23T09:14:43;29.90;1.00
14031;DHT22;7090;49.436;8.490;2022-07-23T09:19:35;30.20;34.40
14031;DHT22;7090;49.436;8.490;2022-07-23T09:27:51;30.60;1.00
14031;DHT22;7090;49.436;8.490;2022-07-23T09:30:25;29.40;1.00
14031;DHT22;7090;49.436;8.490;2022-07-23T09:35:50;27.50;57.80
14031;DHT22;7090;49.436;8.490;2022-07-23T09:38:18;28.20;1.00
14031;DHT22;7090;49.436;8.490;2022-07-23T09:40:44;28.00;99.90
14031;DHT22;7090;49.436;8.490;2022-07-23T09:43:12;28.20;1.00
14031;DHT22;7090;49.436;8.490;2022-07-23T09:45:37;27.80;1.00
14031;DHT22;7090;49.436;8.490;2022-07-23T09:48:15;28.60;1.00
14031;DHT22;7090;49.436;8.490;2022-07-23T09:50:41;29.10;1.00
14031;DHT22;7090;49.436;8.490;2022-07-23T09:53:08;30.40;1.00
14031;DHT22;7090;49.436;8.490;2022-07-23T09:55:35;30.50;99.90
14031;DHT22;7090;49.436;8.490;2022-07-23T09:58:07;30.50;1.00
14031;DHT22;7090;49.436;8.490;2022-07-23T10:00:39;30.00;1.00
14031;DHT22;7090;49.436;8.490;2022-07-23T10:03:06;30.70;1.00
14031;DHT22;7090;49.436;8.490;2022-07-23T10:05:33;31.60;99.90
14031;DHT22;7090;49.436;8.490;2022-07-23T10:08:01;32.10;99.90
14031;DHT22;7090;49.436;8.490;2022-07-23T10:10:28;31.60;99.90
14031;DHT22;7090;49.436;8.490;2022-07-23T10:12:55;32.10;99.90
14031;DHT22;7090;49.436;8.490;2022-07-23T10:15:40;33.20;97.80
14031;DHT22;7090;49.436;8.490;2022-07-23T10:18:08;33.50;1.00
14031;DHT22;7090;49.436;8.490;2022-07-23T10:20:35;33.20;99.90
14031;DHT22;7090;49.436;8.490;2022-07-23T10:23:28;33.60;1.00
14031;DHT22;7090;49.436;8.490;2022-07-23T10:26:02;33.80;1.00
14031;DHT22;7090;49.436;8.490;2022-07-23T10:31:47;32.00;99.90
14031;DHT22;7090;49.436;8.490;2022-07-23T10:34:34;31.60;99.90
14031;DHT22;7090;49.436;8.490;2022-07-23T10:37:12;32.40;99.90
14031;DHT22;7090;49.436;8.490;2022-07-23T10:39:42;32.70;99.90
14031;DHT22;7090;49.436;8.490;2022-07-23T10:42:16;33.00;1.00
14031;DHT22;7090;49.436;8.490;2022-07-23T10:44:44;33.30;99.90
14031;DHT22;7090;49.436;8.490;2022-07-23T10:47:12;33.10;1.00
14031;DHT22;7090;49.436;8.490;2022-07-23T10:49:37;33.00;1.00
14031;DHT22;7090;49.436;8.490;2022-07-23T10:52:27;32.80;1.00
14031;DHT22;7090;49.436;8.490;2022-07-23T10:57:29;32.50;1.00
14031;DHT22;7090;49.436;8.490;2022-07-23T11:02:32;33.50;99.90
14031;DHT22;7090;49.436;8.490;2022-07-23T11:05:03;34.10;99.90
14031;DHT22;7090;49.436;8.490;2022-07-23T11:07:30;33.70;1.00
14031;DHT22;7090;49.436;8.490;2022-07-23T11:09:57;32.90;1.00
14031;DHT22;7090;49.436;8.490;2022-07-23T11:17:23;30.70;99.90
14031;DHT22;7090;49.436;8.490;2022-07-23T11:22:38;33.10;1.00
14031;DHT22;7090;49.436;8.490;2022-07-23T11:25:04;33.40;1.00
14031;DHT22;7090;49.436;8.490;2022-07-23T11:30:45;33.50;1.00
14031;DHT22;7090;49.436;8.490;2022-07-23T11:35:38;33.60;99.90
14031;DHT22;7090;49.436;8.490;2022-07-23T11:38:21;33.90;1.00
14031;DHT22;7090;49.436;8.490;2022-07-23T11:40:49;34.30;1.00
14031;DHT22;7090;49.436;8.490;2022-07-23T11:43:15;33.20;1.00
14031;DHT22;7090;49.436;8.490;2022-07-23T11:45:44;32.80;99.90
14031;DHT22;7090;49.436;8.490;2022-07-23T11:48:26;33.30;92.60
14031;DHT22;7090;49.436;8.490;2022-07-23T11:50:53;33.40;1.00
14031;DHT22;7090;49.436;8.490;2022-07-23T11:53:24;33.60;1.00
14031;DHT22;7090;49.436;8.490;2022-07-23T11:55:50;32.90;1.00
14031;DHT22;7090;49.436;8.490;2022-07-23T11:58:16;33.00;1.00
14031;DHT22;7090;49.436;8.490;2022-07-23T12:00:42;32.20;1.00
14031;DHT22;7090;49.436;8.490;2022-07-23T12:03:08;32.30;1.00
14031;DHT22;7090;49.436;8.490;2022-07-23T12:05:35;33.20;1.00
14031;DHT22;7090;49.436;8.490;2022-07-23T12:08:04;34.10;1.00
14031;DHT22;7090;49.436;8.490;2022-07-23T12:10:42;34.70;1.00
14031;DHT22;7090;49.436;8.490;2022-07-23T12:13:16;35.70;99.90
14031;DHT22;7090;49.436;8.490;2022-07-23T12:15:47;35.40;99.90
14031;DHT22;7090;49.436;8.490;2022-07-23T12:18:19;36.00;99.90
14031;DHT22;7090;49.436;8.490;2022-07-23T12:20:51;36.30;99.90
14031;DHT22;7090;49.436;8.490;2022-07-23T12:23:19;36.00;99.90
14031;DHT22;7090;49.436;8.490;2022-07-23T12:25:46;36.00;99.90
14031;DHT22;7090;49.436;8.490;2022-07-23T12:30:47;35.50;1.00
14031;DHT22;7090;49.436;8.490;2022-07-23T12:33:21;33.80;1.00
14031;DHT22;7090;49.436;8.490;2022-07-23T12:35:47;33.20;1.00
14031;DHT22;7090;49.436;8.490;2022-07-23T12:38:16;32.90;1.00
14031;DHT22;7090;49.436;8.490;2022-07-23T12:40:57;32.10;99.90
14031;DHT22;7090;49.436;8.490;2022-07-23T12:45:53;26.40;39.00
14031;DHT22;7090;49.436;8.490;2022-07-23T12:48:37;25.60;99.90
14031;DHT22;7090;49.436;8.490;2022-07-23T12:53:38;25.60;99.90
14031;DHT22;7090;49.436;8.490;2022-07-23T12:56:14;26.10;99.90
14031;DHT22;7090;49.436;8.490;2022-07-23T12:58:59;27.10;1.00
14031;DHT22;7090;49.436;8.490;2022-07-23T13:01:37;27.60;1.00
14031;DHT22;7090;49.436;8.490;2022-07-23T13:04:11;27.60;99.90
14031;DHT22;7090;49.436;8.490;2022-07-23T13:09:16;28.70;1.00
14031;DHT22;7090;49.436;8.490;2022-07-23T13:11:42;29.20;1.00
14031;DHT22;7090;49.436;8.490;2022-07-23T13:14:08;29.20;1.00
14031;DHT22;7090;49.436;8.490;2022-07-23T13:16:34;29.30;1.00
14031;DHT22;7090;49.436;8.490;2022-07-23T13:19:00;29.40;99.90
14031;DHT22;7090;49.436;8.490;2022-07-23T13:21:28;29.50;99.90
14031;DHT22;7090;49.436;8.490;2022-07-23T13:23:55;29.50;1.00
14031;DHT22;7090;49.436;8.490;2022-07-23T13:26:21;29.60;1.00
14031;DHT22;7090;49.436;8.490;2022-07-23T13:28:47;29.60;1.00
14031;DHT22;7090;49.436;8.490;2022-07-23T13:31:13;29.70;99.90
14031;DHT22;7090;49.436;8.490;2022-07-23T13:33:38;29.80;99.90
14031;DHT22;7090;49.436;8.490;2022-07-23T13:36:05;30.00;99.90
14031;DHT22;7090;49.436;8.490;2022-07-23T13:38:31;30.20;1.00
14031;DHT22;7090;49.436;8.490;2022-07-23T13:40:56;30.70;1.00
14031;DHT22;7090;49.436;8.490;2022-07-23T13:43:24;30.90;1.00
14031;DHT22;7090;49.436;8.490;2022-07-23T13:45:51;31.20;1.00
14031;DHT22;7090;49.436;8.490;2022-07-23T13:48:18;31.40;99.90
14031;DHT22;7090;49.436;8.490;2022-07-23T13:50:44;31.30;1.00
14031;DHT22;7090;49.436;8.490;2022-07-23T13:53:12;31.10;99.90
14031;DHT22;7090;49.436;8.490;2022-07-23T13:55:39;30.90;99.90
14031;DHT22;7090;49.436;8.490;2022-07-23T13:58:06;31.00;1.00
14031;DHT22;7090;49.436;8.490;2022-07-23T14:00:33;30.40;1.00
14031;DHT22;7090;49.436;8.490;2022-07-23T14:03:00;30.80;99.90
14031;DHT22;7090;49.436;8.490;2022-07-23T14:05:26;31.40;1.00
14031;DHT22;7090;49.436;8.490;2022-07-23T14:07:52;31.60;1.00
14031;DHT22;7090;49.436;8.490;2022-07-23T14:10:20;31.70;1.00
14031;DHT22;7090;49.436;8.490;2022-07-23T14:12:48;31.80;1.00
14031;DHT22;7090;49.436;8.490;2022-07-23T14:15:14;32.20;1.00
14031;DHT22;7090;49.436;8.490;2022-07-23T14:17:42;32.70;1.00
14031;DHT22;7090;49.436;8.490;2022-07-23T14:20:09;33.30;99.90
14031;DHT22;7090;49.436;8.490;2022-07-23T14:22:36;33.60;99.90
14031;DHT22;7090;49.436;8.490;2022-07-23T14:25:02;34.50;99.90
14031;DHT22;7090;49.436;8.490;2022-07-23T14:27:28;34.90;1.00
14031;DHT22;7090;49.436;8.490;2022-07-23T14:29:55;34.90;1.00
14031;DHT22;7090;49.436;8.490;2022-07-23T14:32:21;34.70;1.00
14031;DHT22;7090;49.436;8.490;2022-07-23T14:34:47;34.00;1.00
14031;DHT22;7090;49.436;8.490;2022-07-23T14:37:13;33.90;99.90
14031;DHT22;7090;49.436;8.490;2022-07-23T14:39:39;32.60;99.90
14031;DHT22;7090;49.436;8.490;2022-07-23T14:42:06;33.20;99.90
14031;DHT22;7090;49.436;8.490;2022-07-23T14:44:32;33.00;1.00
14031;DHT22;7090;49.436;8.490;2022-07-23T14:46:57;33.20;96.70
14031;DHT22;7090;49.436;8.490;2022-07-23T14:49:23;33.90;1.00
14031;DHT22;7090;49.436;8.490;2022-07-23T14:51:49;34.40;1.00
14031;DHT22;7090;49.436;8.490;2022-07-23T14:54:15;34.50;90.00
14031;DHT22;7090;49.436;8.490;2022-07-23T14:56:41;34.90;99.90
14031;DHT22;7090;49.436;8.490;2022-07-23T14:59:07;35.00;1.00
14031;DHT22;7090;49.436;8.490;2022-07-23T15:01:34;35.00;1.00
14031;DHT22;7090;49.436;8.490;2022-07-23T15:03:59;34.80;1.00
14031;DHT22;7090;49.436;8.490;2022-07-23T15:06:25;35.50;99.90
14031;DHT22;7090;49.436;8.490;2022-07-23T15:08:51;35.50;1.00
14031;DHT22;7090;49.436;8.490;2022-07-23T15:11:17;35.80;1.00
14031;DHT22;7090;49.436;8.490;2022-07-23T15:13:42;35.20;1.00
14031;DHT22;7090;49.436;8.490;2022-07-23T15:16:08;34.80;99.90
14031;DHT22;7090;49.436;8.490;2022-07-23T15:18:35;34.80;99.90
14031;DHT22;7090;49.436;8.490;2022-07-23T15:21:01;35.10;1.00
14031;DHT22;7090;49.436;8.490;2022-07-23T15:23:27;34.60;1.00
14031;DHT22;7090;49.436;8.490;2022-07-23T15:25:54;34.40;1.00
14031;DHT22;7090;49.436;8.490;2022-07-23T15:28:21;34.70;1.00
14031;DHT22;7090;49.436;8.490;2022-07-23T15:30:46;34.90;1.00
14031;DHT22;7090;49.436;8.490;2022-07-23T15:33:12;34.30;1.00
14031;DHT22;7090;49.436;8.490;2022-07-23T15:35:38;34.60;99.90
14031;DHT22;7090;49.436;8.490;2022-07-23T15:38:03;34.80;1.00
14031;DHT22;7090;49.436;8.490;2022-07-23T15:40:29;34.50;1.00
14031;DHT22;7090;49.436;8.490;2022-07-23T15:42:55;34.30;1.00
14031;DHT22;7090;49.436;8.490;2022-07-23T15:45:20;34.20;1.00
14031;DHT22;7090;49.436;8.490;2022-07-23T15:47:47;34.20;1.00
14031;DHT22;7090;49.436;8.490;2022-07-23T15:50:14;34.10;99.90
14031;DHT22;7090;49.436;8.490;2022-07-23T15:52:39;33.80;1.00
14031;DHT22;7090;49.436;8.490;2022-07-23T15:55:06;33.50;99.90
14031;DHT22;7090;49.436;8.490;2022-07-23T15:57:32;33.10;99.90
14031;DHT22;7090;49.436;8.490;2022-07-23T15:59:58;32.40;1.00
14031;DHT22;7090;49.436;8.490;2022-07-23T16:02:24;31.60;99.90
14031;DHT22;7090;49.436;8.490;2022-07-23T16:04:50;31.30;1.00
14031;DHT22;7090;49.436;8.490;2022-07-23T16:07:20;31.00;80.60
14031;DHT22;7090;49.436;8.490;2022-07-23T16:09:46;30.80;99.90
14031;DHT22;7090;49.436;8.490;2022-07-23T16:12:11;30.70;1.00
14031;DHT22;7090;49.436;8.490;2022-07-23T16:14:38;30.60;99.90
14031;DHT22;7090;49.436;8.490;2022-07-23T16:17:04;30.60;1.00
14031;DHT22;7090;49.436;8.490;2022-07-23T16:19:30;30.60;1.00
14031;DHT22;7090;49.436;8.490;2022-07-23T16:21:56;30.60;1.00
14031;DHT22;7090;49.436;8.490;2022-07-23T16:24:22;30.50;1.00
14031;DHT22;7090;49.436;8.490;2022-07-23T16:26:48;30.60;1.00
14031;DHT22;7090;49.436;8.490;2022-07-23T16:29:14;30.70;1.00
14031;DHT22;7090;49.436;8.490;2022-07-23T16:31:40;30.90;99.90
14031;DHT22;7090;49.436;8.490;2022-07-23T16:34:06;31.10;99.90
14031;DHT22;7090;49.436;8.490;2022-07-23T16:36:32;31.10;1.00